Huff, North Dakota
Current Conditions -  °F | °C
As of 7:55 AM on Saturday 25 Oct 2014 (Local Time) from KY19 Reporting Station
Clear Clear  
Wind Chill: 36°   Ceiling: Unl
Heat Index: 41°   Visibility: 10mi
Dew Point: 32°   Wind: 7mph
Humidity: 70%   Direction: 300°WNW
Pressure: 30.14"   Gusts: NA
Location:  46.7289°N, 100.983°W
Report Text: KY19 251255Z AUTO 30006KT 10SM CLR 05/00 A3014 RMK AO2
Loading
Personal Weather Stations






























Interactive Weather Map
Tropical Storm Tracking
New forecast layout! Learn more

10-Day Weather Forecast

Advertisements
Track Severe Weather on mobile